Greenway, AR (72430)

2:28 AM CDT on July 28, 2016 (GMT -0500)
East Linden Circle | | Change Station

Elev 262 ft 36.23 °N, 90.07 °W | Updated 3 minutes ago

Overcast
Overcast
74.9 °F
Feels Like 74 °F
N
0.0
Wind Variable Wind from East
Gusts 0.0 mph

Today
High -- | Low -- °F
--% Chance of Precip.
Yesterday
High -- | Low -- °F
Precip. -- in
Pressure 29.90 in
Visibility 8.0 miles
Clouds Mostly Cloudy 300 ft
Overcast 7000 ft
Heat Index 74 °F
Dew Point 71 °F
Humidity 89%
Rainfall 0.01 in
Snow Depth Not available.
6:04 AM 8:09 PM
Waning Crescent, 35% visible
SPECI KPOF 280720Z AUTO 00000KT 8SM BKN003 OVC070 24/23 A2990 RMK AO2 T02390228 TSNO
Pressure 29.90 in
Visibility 8.0 miles
Clouds Mostly Cloudy 300 ft
Overcast 7000 ft
Heat Index 74 °F
Dew Point 71 °F
Humidity 89%
Rainfall 0.01 in
Snow Depth Not available.
6:04 AM 8:09 PM
Waning Crescent, 35% visible
SPECI KPOF 280720Z AUTO 00000KT 8SM BKN003 OVC070 24/23 A2990 RMK AO2 T02390228 TSNO

10-Day Weather Forecast

Almanac

Astronomy

Jul. 28, 2016 Rise Set
Actual Time
Civil Twilight
Nautical Twilight
Astronomical Twilight
Moon
Length of Visible Light
Length of Day
Tomorrow will be .
, % of the Moon is Illuminated

Today's Extremes

State Highs State Lows

Community

WunderPhotos

Upload Photos

1,928,070 photos uploaded!

WunderBlog® & News

Nearby

Air Quality

  Air Quality AQ Index Pollutant
Not available.

Snow Depth

Station Depth Elevation

Earthquake Activity

City Distance Mag. Time & Date
Minimum magnitude displayed is 2.5.

Coastal Water Temperatures

Place Temperature

Stations

Nearby Weather Stations

Station Location Temp. Windchill Dew Point Humidity Wind Precip. Elev Updated Type
                   

Watches & Warnings

There are currently no watches in effect.